createdAt,value
2023-03-11T00:06:25.453Z,21.10
2023-03-11T00:16:32.548Z,20.30
2023-03-11T00:26:39.945Z,19.10
2023-03-11T00:36:47.478Z,15.70
2023-03-11T00:46:54.772Z,14.60
2023-03-11T00:57:01.747Z,11.10
2023-03-11T01:07:11.372Z,4.00
2023-03-11T01:17:18.853Z,3.40
2023-03-11T01:27:26.123Z,2.60
2023-03-11T01:37:34.111Z,1.90
2023-03-11T01:47:38.745Z,1.60
2023-03-11T01:57:47.846Z,1.70
2023-03-11T02:07:56.790Z,2.00
2023-03-11T02:18:06.590Z,1.40
2023-03-11T02:38:28.218Z,1.00
2023-03-11T02:48:35.884Z,1.20
2023-03-11T02:58:43.222Z,1.40
2023-03-11T03:08:50.782Z,1.00
2023-03-11T03:18:57.813Z,1.30
2023-03-11T03:29:05.142Z,1.00
2023-03-11T03:39:12.352Z,1.30
2023-03-11T03:49:19.389Z,1.80
2023-03-11T03:59:26.465Z,2.50
2023-03-11T04:09:33.722Z,1.90
2023-03-11T04:19:41.428Z,1.50
2023-03-11T04:29:48.675Z,1.70
2023-03-11T04:39:56.110Z,1.60
2023-03-11T04:50:04.231Z,1.40
2023-03-11T05:00:13.834Z,3.20
2023-03-11T05:10:22.726Z,1.50
2023-03-11T05:20:32.405Z,1.00
2023-03-11T05:40:45.094Z,0.90
2023-03-11T05:50:52.210Z,0.80
2023-03-11T06:01:00.335Z,0.90
2023-03-11T06:11:09.633Z,0.80
2023-03-11T06:21:16.537Z,1.10
2023-03-11T06:31:22.888Z,1.40
2023-03-11T06:41:28.058Z,1.60
2023-03-11T06:51:35.407Z,4.20
2023-03-11T07:01:42.903Z,2.00
2023-03-11T07:11:49.996Z,2.40
2023-03-11T07:21:57.069Z,1.70
2023-03-11T07:32:04.537Z,3.10
2023-03-11T07:42:10.747Z,3.60
2023-03-11T07:52:17.962Z,3.70
2023-03-11T08:02:25.217Z,1.00
2023-03-11T08:12:32.494Z,2.40
2023-03-11T08:22:55.715Z,3.30
2023-03-11T08:33:05.145Z,2.30
2023-03-11T08:43:15.616Z,1.30
2023-03-11T08:53:22.355Z,15.40
2023-03-11T09:03:27.529Z,2.80
2023-03-11T09:13:34.846Z,4.80
2023-03-11T09:23:44.515Z,14.90
2023-03-11T09:33:55.701Z,10.00
2023-03-11T09:44:05.220Z,4.00
2023-03-11T10:04:23.623Z,3.80
2023-03-11T10:14:40.092Z,6.00
2023-03-11T10:24:55.486Z,4.30
2023-03-11T10:35:05.459Z,4.80
2023-03-11T10:45:15.234Z,5.00
2023-03-11T10:55:22.476Z,6.70
2023-03-11T11:05:29.449Z,6.80
2023-03-11T11:15:39.361Z,6.00
2023-03-11T11:25:57.182Z,6.10
2023-03-11T11:36:06.149Z,6.30
2023-03-11T11:46:13.878Z,6.10
2023-03-11T11:56:21.066Z,8.30
2023-03-11T12:06:26.802Z,6.60
2023-03-11T12:16:36.274Z,4.60
2023-03-11T12:26:48.131Z,6.40
2023-03-11T12:36:58.984Z,5.50
2023-03-11T12:47:05.168Z,7.10
2023-03-11T12:57:35.872Z,3.00
2023-03-11T13:07:47.112Z,5.20
2023-03-11T13:18:02.673Z,5.50
2023-03-11T13:28:20.262Z,5.80
2023-03-11T13:39:07.266Z,6.10
2023-03-11T13:49:21.866Z,5.00
2023-03-11T13:59:31.021Z,4.30
2023-03-11T14:09:38.269Z,4.70
2023-03-11T14:20:04.854Z,8.30
2023-03-11T14:30:21.039Z,7.70
2023-03-11T14:40:29.849Z,7.60
2023-03-11T14:50:38.460Z,8.40
2023-03-11T15:00:43.585Z,13.90
2023-03-11T15:11:24.830Z,9.10
2023-03-11T15:21:32.564Z,11.40
2023-03-11T15:31:40.067Z,11.50
2023-03-11T15:41:47.197Z,9.80
2023-03-11T16:01:59.939Z,6.30
2023-03-11T16:12:12.289Z,5.60
2023-03-11T16:22:16.549Z,6.60
2023-03-11T16:32:24.020Z,5.30
2023-03-11T16:42:31.296Z,5.40
2023-03-11T16:52:38.599Z,8.70
2023-03-11T17:02:46.284Z,4.90
2023-03-11T17:12:53.756Z,8.80
2023-03-11T17:23:01.284Z,8.30
2023-03-11T17:33:08.563Z,6.40
2023-03-11T17:43:15.689Z,8.80
2023-03-11T17:53:22.773Z,8.30
2023-03-11T18:03:29.103Z,8.00
2023-03-11T18:13:37.429Z,9.70
2023-03-11T18:23:45.696Z,7.50
2023-03-11T18:33:54.832Z,9.60
2023-03-11T18:44:02.560Z,9.50
2023-03-11T18:54:11.428Z,9.70
2023-03-11T19:04:18.708Z,6.50
2023-03-11T19:14:25.121Z,6.40
2023-03-11T19:24:32.629Z,6.40
2023-03-11T19:34:38.666Z,8.50
2023-03-11T19:44:46.511Z,9.20
2023-03-11T19:54:53.168Z,8.70
2023-03-11T20:05:00.652Z,5.90
2023-03-11T20:15:05.605Z,9.20
2023-03-11T20:25:13.294Z,9.50
2023-03-11T20:35:18.285Z,9.90
2023-03-11T20:45:25.864Z,8.60
2023-03-11T20:55:33.228Z,9.90
2023-03-11T21:05:41.906Z,7.30
2023-03-11T21:15:49.015Z,9.30
2023-03-11T21:25:59.307Z,6.60
2023-03-11T21:36:08.509Z,4.50
2023-03-11T21:46:17.528Z,4.80
2023-03-11T21:56:23.389Z,6.70
2023-03-11T22:06:31.258Z,7.60
2023-03-11T22:16:38.849Z,7.00
2023-03-11T22:26:46.207Z,6.80
2023-03-11T22:36:53.380Z,8.30
2023-03-11T22:47:00.497Z,7.70
2023-03-11T22:57:07.174Z,5.60
2023-03-11T23:07:14.662Z,7.00
2023-03-11T23:17:21.759Z,10.90
2023-03-11T23:27:29.613Z,15.10
2023-03-11T23:37:39.895Z,10.20
2023-03-11T23:47:46.975Z,11.90
2023-03-11T23:57:53.084Z,9.80
